createdAt,value
2023-04-15T00:00:58.126Z,91.3
2023-04-15T00:01:58.283Z,91.5
2023-04-15T00:02:58.750Z,91.6
2023-04-15T00:03:58.402Z,91.7
2023-04-15T00:04:58.111Z,91.7
2023-04-15T00:05:58.154Z,91.7
2023-04-15T00:06:58.121Z,91.7
2023-04-15T00:07:58.161Z,91.8
2023-04-15T00:08:58.661Z,92.1
2023-04-15T00:09:58.164Z,92.4
2023-04-15T00:10:58.170Z,92.4
2023-04-15T00:11:58.188Z,92.5
2023-04-15T00:12:58.196Z,92.8
2023-04-15T00:13:58.175Z,92.9
2023-04-15T00:14:58.214Z,93.1
2023-04-15T00:15:58.392Z,93.2
2023-04-15T00:16:58.820Z,93.7
2023-04-15T00:17:58.358Z,93.3
2023-04-15T00:18:59.417Z,93.4
2023-04-15T00:19:58.396Z,93.5
2023-04-15T00:37:58.743Z,94.9
2023-04-15T00:38:59.320Z,94.7
2023-04-15T00:39:58.375Z,94.7
2023-04-15T00:40:58.386Z,94.5
2023-04-15T00:41:58.414Z,94.6
2023-04-15T00:42:58.412Z,94.9
2023-04-15T00:43:58.423Z,94.9
2023-04-15T00:44:58.435Z,95.0
2023-04-15T00:45:58.652Z,95.0
2023-04-15T00:46:58.440Z,95.2
2023-04-15T00:47:58.581Z,95.2
2023-04-15T00:48:59.358Z,95.1
2023-04-15T00:49:58.504Z,94.9
2023-04-15T00:50:58.497Z,94.8
2023-04-15T00:51:58.550Z,95.0
2023-04-15T00:52:58.501Z,95.0
2023-04-15T00:53:58.503Z,95.2
2023-04-15T00:54:58.514Z,95.2
2023-04-15T00:55:58.580Z,95.2
2023-04-15T00:56:58.512Z,95.2
2023-04-15T00:57:58.563Z,95.2
2023-04-15T00:58:59.370Z,95.2
2023-04-15T00:59:58.586Z,95.3
2023-04-15T01:00:58.560Z,95.4
2023-04-15T01:01:59.001Z,95.5
2023-04-15T01:02:59.159Z,95.7
2023-04-15T01:03:59.116Z,95.7
2023-04-15T01:04:58.604Z,95.7
2023-04-15T01:06:01.501Z,95.7
2023-04-15T01:06:58.615Z,95.6
2023-04-15T01:07:58.633Z,95.7
2023-04-15T01:08:59.863Z,95.6
2023-04-15T01:09:58.743Z,95.6
2023-04-15T01:10:58.644Z,95.7
2023-04-15T01:11:58.676Z,95.7
2023-04-15T01:12:58.646Z,95.7
2023-04-15T01:13:58.700Z,95.7
2023-04-15T01:14:58.817Z,95.7
2023-04-15T01:15:58.911Z,95.8
2023-04-15T01:16:58.702Z,95.9
2023-04-15T01:17:58.860Z,95.8
2023-04-15T01:18:59.717Z,95.7
2023-04-15T01:19:58.715Z,95.7
2023-04-15T01:20:58.733Z,95.8
2023-04-15T01:21:58.752Z,95.8
2023-04-15T01:22:58.743Z,95.8
2023-04-15T01:23:58.795Z,95.8
2023-04-15T01:24:58.756Z,95.8
2023-04-15T01:25:58.770Z,95.8
2023-04-15T01:26:58.789Z,95.7
2023-04-15T01:27:58.773Z,95.8
2023-04-15T01:28:59.634Z,95.7
2023-04-15T01:29:58.787Z,95.9
2023-04-15T01:30:58.796Z,96.1
2023-04-15T01:31:58.981Z,96.3
2023-04-15T01:32:58.965Z,96.4
2023-04-15T01:33:58.834Z,96.5
2023-04-15T01:34:58.862Z,96.5
2023-04-15T01:35:58.867Z,96.5
2023-04-15T01:36:58.855Z,96.7
2023-04-15T01:37:58.864Z,96.8
2023-04-15T01:38:59.802Z,96.8
2023-04-15T01:39:58.871Z,96.8
2023-04-15T01:40:58.931Z,96.8
2023-04-15T01:41:58.912Z,96.8
2023-04-15T01:42:58.890Z,96.8
2023-04-15T01:43:58.975Z,96.7
2023-04-15T01:44:58.912Z,96.6
2023-04-15T01:45:58.922Z,96.6
2023-04-15T01:46:59.052Z,96.6
2023-04-15T01:47:59.120Z,96.5
2023-04-15T01:48:59.813Z,96.5
2023-04-15T01:49:58.958Z,96.5
2023-04-15T01:50:58.976Z,96.5
2023-04-15T01:51:58.986Z,96.3
2023-04-15T01:52:59.105Z,96.3
2023-04-15T01:53:59.037Z,96.3
2023-04-15T01:54:59.027Z,96.1
2023-04-15T01:55:59.038Z,96.2
2023-04-15T01:56:59.040Z,96.2
2023-04-15T01:57:59.055Z,96.4
2023-04-15T01:58:59.721Z,96.4
2023-04-15T01:59:59.040Z,96.5
2023-04-15T02:00:59.207Z,96.6
2023-04-15T02:01:59.317Z,96.7
2023-04-15T02:02:59.270Z,96.7
2023-04-15T02:03:59.175Z,96.8
2023-04-15T02:04:59.094Z,96.8
2023-04-15T02:05:59.132Z,96.7
2023-04-15T02:06:59.106Z,96.7
2023-04-15T02:07:59.117Z,96.8
2023-04-15T02:09:00.005Z,96.9
2023-04-15T02:09:59.132Z,96.8
2023-04-15T02:10:59.122Z,96.8
2023-04-15T02:11:59.142Z,96.6
2023-04-15T02:12:59.148Z,96.6
2023-04-15T02:13:59.163Z,96.6
2023-04-15T02:14:59.179Z,96.5
2023-04-15T02:15:59.198Z,96.4
2023-04-15T02:16:59.410Z,96.4
2023-04-15T02:17:59.425Z,96.3
2023-04-15T02:18:59.804Z,96.3
2023-04-15T02:19:59.247Z,96.3
2023-04-15T02:20:59.262Z,96.2
2023-04-15T02:21:59.242Z,96.3
2023-04-15T02:22:59.251Z,96.1
2023-04-15T02:23:59.262Z,96.1
2023-04-15T02:24:59.277Z,96.2
2023-04-15T02:25:59.258Z,96.2
2023-04-15T02:26:59.328Z,96.2
2023-04-15T02:27:59.309Z,96.3
2023-04-15T02:29:00.158Z,96.3
2023-04-15T02:29:59.298Z,96.4
2023-04-15T02:30:59.318Z,96.4
2023-04-15T02:31:59.503Z,96.4
2023-04-15T02:32:59.508Z,96.5
2023-04-15T02:33:59.341Z,96.4
2023-04-15T02:34:59.339Z,96.5
2023-04-15T02:35:59.349Z,96.5
2023-04-15T02:36:59.418Z,96.5
2023-04-15T02:37:59.388Z,96.6
2023-04-15T02:39:00.105Z,96.6
2023-04-15T02:39:59.362Z,96.6
2023-04-15T02:40:59.430Z,96.6
2023-04-15T02:41:59.392Z,96.7
2023-04-15T02:42:59.395Z,96.8
2023-04-15T02:43:59.402Z,96.9
2023-04-15T02:44:59.414Z,96.9
2023-04-15T02:45:59.518Z,97.0
2023-04-15T02:46:59.447Z,97.1
2023-04-15T02:47:59.696Z,97.1
2023-04-15T02:49:00.730Z,97.2
2023-04-15T02:49:59.446Z,97.2
2023-04-15T02:50:59.472Z,97.3
2023-04-15T02:51:59.458Z,97.3
2023-04-15T02:52:59.493Z,97.4
2023-04-15T02:53:59.479Z,97.4
2023-04-15T02:54:59.502Z,97.3
2023-04-15T02:55:59.495Z,97.3
2023-04-15T02:56:59.526Z,97.2
2023-04-15T02:57:59.526Z,97.2
2023-04-15T02:59:00.108Z,97.2
2023-04-15T02:59:59.527Z,97.2
2023-04-15T03:00:59.625Z,97.1
2023-04-15T03:01:59.607Z,97.1
2023-04-15T03:03:00.156Z,97.1
2023-04-15T03:03:59.830Z,96.9
2023-04-15T03:04:59.573Z,96.9
2023-04-15T03:05:59.586Z,96.9
2023-04-15T03:06:59.605Z,96.9
2023-04-15T03:07:59.672Z,97.0
2023-04-15T03:09:00.140Z,97.0
2023-04-15T03:09:59.609Z,97.0
2023-04-15T03:10:59.647Z,97.1
2023-04-15T03:11:59.664Z,97.1
2023-04-15T03:12:59.653Z,97.2
2023-04-15T03:13:59.660Z,97.3
2023-04-15T03:14:59.743Z,97.3
2023-04-15T03:15:59.787Z,97.4
2023-04-15T03:16:59.775Z,97.5
2023-04-15T03:17:59.810Z,97.6
2023-04-15T03:19:00.610Z,97.7
2023-04-15T03:19:59.838Z,97.7
2023-04-15T03:20:59.731Z,97.8
2023-04-15T03:21:59.745Z,97.8
2023-04-15T03:22:59.738Z,97.9
2023-04-15T03:23:59.745Z,98.0
2023-04-15T03:24:59.748Z,98.0
2023-04-15T03:25:59.772Z,98.0
2023-04-15T03:26:59.776Z,98.0
2023-04-15T03:27:59.782Z,98.0
2023-04-15T03:29:00.618Z,98.1
2023-04-15T03:29:59.799Z,98.2
2023-04-15T03:30:59.911Z,98.2
2023-04-15T03:31:59.824Z,98.3
2023-04-15T03:33:00.005Z,98.2
2023-04-15T03:33:59.843Z,98.2
2023-04-15T03:34:59.852Z,98.2
2023-04-15T03:35:59.848Z,98.3
2023-04-15T03:36:59.858Z,98.3
2023-04-15T03:37:59.854Z,98.3
2023-04-15T03:39:00.575Z,98.4
2023-04-15T03:39:59.888Z,98.4
2023-04-15T03:40:59.928Z,98.4
2023-04-15T03:41:59.914Z,98.4
2023-04-15T03:42:59.932Z,98.4
2023-04-15T03:43:59.940Z,98.4
2023-04-15T03:44:59.934Z,98.4
2023-04-15T03:46:02.221Z,98.4
2023-04-15T03:46:59.948Z,98.4
2023-04-15T03:48:18.256Z,98.4
2023-04-15T03:49:00.940Z,98.4
2023-04-15T03:49:59.978Z,98.3
2023-04-15T03:51:00.004Z,98.2
2023-04-15T03:52:00.037Z,98.3
2023-04-15T03:53:00.008Z,98.3
2023-04-15T03:54:00.046Z,98.3
2023-04-15T03:55:00.042Z,98.3
2023-04-15T03:56:00.046Z,98.3
2023-04-15T03:57:00.061Z,98.3
2023-04-15T03:58:00.140Z,98.4
2023-04-15T03:59:00.907Z,98.5
2023-04-15T04:00:00.111Z,98.4
2023-04-15T04:01:00.110Z,98.3
2023-04-15T04:02:00.523Z,98.4
2023-04-15T04:03:00.882Z,98.5
2023-04-15T04:04:00.425Z,98.5
2023-04-15T04:05:00.163Z,98.4
2023-04-15T04:06:00.201Z,98.4
2023-04-15T04:07:00.163Z,98.4
2023-04-15T04:08:00.127Z,98.4
2023-04-15T04:09:00.880Z,98.4
2023-04-15T04:10:00.178Z,98.5
2023-04-15T04:11:00.188Z,98.5
2023-04-15T04:12:00.227Z,98.5
2023-04-15T04:13:00.230Z,98.5
2023-04-15T04:14:00.215Z,98.5
2023-04-15T04:15:00.235Z,98.5
2023-04-15T04:16:00.628Z,98.5
2023-04-15T04:17:00.450Z,98.5
2023-04-15T04:18:00.397Z,98.6
2023-04-15T04:19:01.064Z,98.6
2023-04-15T04:20:00.306Z,98.7
2023-04-15T04:21:00.302Z,98.7
2023-04-15T04:22:00.280Z,98.7
2023-04-15T04:23:00.272Z,98.6
2023-04-15T04:24:00.308Z,98.6
2023-04-15T04:25:00.299Z,98.6
2023-04-15T04:26:00.346Z,98.7
2023-04-15T04:27:00.321Z,98.7
2023-04-15T04:28:00.343Z,98.7
2023-04-15T04:29:01.233Z,98.7
2023-04-15T04:30:00.374Z,98.7
2023-04-15T04:31:00.371Z,98.7
2023-04-15T04:32:00.543Z,98.7
2023-04-15T04:33:00.701Z,98.8
2023-04-15T04:34:00.416Z,98.8
2023-04-15T04:35:00.438Z,98.8
2023-04-15T04:36:00.440Z,98.8
2023-04-15T04:37:00.446Z,98.9
2023-04-15T04:38:00.450Z,98.9
2023-04-15T04:39:01.184Z,99.0
2023-04-15T04:40:00.489Z,99.0
2023-04-15T04:41:00.518Z,99.0
2023-04-15T04:42:00.493Z,99.0
2023-04-15T04:43:00.547Z,98.9
2023-04-15T04:44:00.531Z,98.9
2023-04-15T04:45:00.583Z,99.0
2023-04-15T04:46:00.756Z,98.9
2023-04-15T04:47:00.591Z,99.0
2023-04-15T04:48:00.893Z,98.9
2023-04-15T04:49:01.138Z,99.0
2023-04-15T04:50:00.660Z,99.0
2023-04-15T04:51:00.574Z,99.0
2023-04-15T04:52:00.625Z,99.1
2023-04-15T04:53:00.609Z,99.1
2023-04-15T04:54:04.027Z,99.2
2023-04-15T04:55:00.656Z,99.1
2023-04-15T04:56:00.629Z,99.0
2023-04-15T04:57:00.663Z,99.0
2023-04-15T04:58:00.661Z,99.0
2023-04-15T04:59:01.235Z,98.9
2023-04-15T05:00:00.674Z,98.9
2023-04-15T05:01:00.752Z,98.9
2023-04-15T05:02:01.117Z,98.9
2023-04-15T05:03:01.259Z,98.9
2023-04-15T05:04:01.217Z,98.9
2023-04-15T05:05:00.738Z,98.9
2023-04-15T05:06:00.731Z,98.9
2023-04-15T05:07:00.755Z,98.8
2023-04-15T05:08:00.737Z,98.8
2023-04-15T05:09:01.460Z,98.8
2023-04-15T05:10:00.798Z,98.7
2023-04-15T05:11:00.789Z,98.8
2023-04-15T05:12:00.788Z,98.8
2023-04-15T05:13:00.796Z,98.8
2023-04-15T05:14:00.807Z,98.9
2023-04-15T05:15:00.829Z,98.9
2023-04-15T05:16:01.008Z,99.0
2023-04-15T05:17:00.859Z,99.0
2023-04-15T05:18:01.018Z,99.0
2023-04-15T05:19:01.639Z,98.9
2023-04-15T05:20:00.862Z,98.9
2023-04-15T05:21:00.875Z,98.8
2023-04-15T05:22:00.901Z,98.8
2023-04-15T05:23:00.902Z,98.8
2023-04-15T05:24:00.934Z,98.9
2023-04-15T05:25:00.936Z,99.0
2023-04-15T05:26:00.926Z,99.0
2023-04-15T05:27:00.934Z,98.9
2023-04-15T05:28:00.939Z,98.9
2023-04-15T05:29:02.345Z,98.9
2023-04-15T05:30:00.955Z,98.9
2023-04-15T05:31:01.042Z,98.9
2023-04-15T05:32:00.973Z,98.9
2023-04-15T05:33:01.181Z,98.8
2023-04-15T05:34:00.986Z,98.8
2023-04-15T05:35:01.023Z,98.8
2023-04-15T05:36:01.024Z,98.8
2023-04-15T05:37:01.020Z,98.8
2023-04-15T05:38:01.047Z,98.8
2023-04-15T05:39:01.677Z,98.9
2023-04-15T05:40:01.082Z,98.9
2023-04-15T05:41:01.084Z,98.9
2023-04-15T05:42:01.094Z,99.0
2023-04-15T05:43:01.062Z,99.1
2023-04-15T05:44:01.102Z,99.1
2023-04-15T05:45:01.085Z,99.1
2023-04-15T05:46:01.455Z,99.3
2023-04-15T05:47:01.121Z,99.4
2023-04-15T05:48:01.287Z,99.3
2023-04-15T05:49:01.849Z,99.4
2023-04-15T05:50:01.134Z,99.5
2023-04-15T05:51:01.160Z,99.5
2023-04-15T05:52:01.161Z,99.4
2023-04-15T05:53:01.161Z,99.4
2023-04-15T05:54:01.178Z,99.5
2023-04-15T05:55:01.208Z,99.6
2023-04-15T05:56:01.209Z,99.7
2023-04-15T05:57:01.237Z,99.8
2023-04-15T05:58:01.202Z,99.9
2023-04-15T05:59:01.563Z,100.0
2023-04-15T06:00:01.231Z,100.0
2023-04-15T06:01:01.241Z,100.0
2023-04-15T06:02:01.325Z,100.0
2023-04-15T06:03:01.543Z,100.0
2023-04-15T06:04:01.538Z,100.0
2023-04-15T06:05:01.877Z,100.0
2023-04-15T06:06:01.281Z,100.0
2023-04-15T06:07:01.287Z,100.0
2023-04-15T06:08:01.302Z,100.0
2023-04-15T06:09:02.408Z,100.0
2023-04-15T06:10:01.351Z,100.0
2023-04-15T06:11:01.335Z,100.0
2023-04-15T06:12:01.341Z,100.0
2023-04-15T06:13:01.328Z,100.0
2023-04-15T06:14:01.553Z,100.0
2023-04-15T06:15:01.373Z,100.0
2023-04-15T06:16:01.568Z,100.0
2023-04-15T06:17:01.520Z,100.0
2023-04-15T06:18:01.600Z,100.0
2023-04-15T06:19:01.992Z,100.0
2023-04-15T06:20:01.466Z,100.0
2023-04-15T06:21:01.441Z,99.9
2023-04-15T06:22:01.440Z,99.8
2023-04-15T06:23:01.455Z,99.6
2023-04-15T06:24:01.683Z,99.4
2023-04-15T06:25:01.457Z,99.3
2023-04-15T06:26:01.493Z,99.1
2023-04-15T06:27:01.482Z,98.9
2023-04-15T06:28:01.567Z,98.5
2023-04-15T06:29:02.555Z,98.0
2023-04-15T06:30:01.515Z,97.9
2023-04-15T06:31:01.606Z,97.7
2023-04-15T06:32:01.530Z,97.8
2023-04-15T06:33:01.767Z,97.8
2023-04-15T06:34:01.679Z,97.6
2023-04-15T06:35:01.562Z,97.3
2023-04-15T06:36:01.667Z,96.9
2023-04-15T06:37:01.632Z,96.7
2023-04-15T06:38:01.714Z,96.2
2023-04-15T06:39:02.703Z,96.0
2023-04-15T06:40:01.781Z,95.8
2023-04-15T06:41:01.745Z,95.7
2023-04-15T06:42:01.717Z,95.7
2023-04-15T06:43:01.633Z,95.5
2023-04-15T06:44:01.677Z,95.4
2023-04-15T06:45:01.802Z,95.2
2023-04-15T06:46:01.810Z,94.9
2023-04-15T06:47:01.696Z,94.9
2023-04-15T06:48:01.717Z,94.8
2023-04-15T06:49:02.488Z,94.7
2023-04-15T06:50:01.777Z,94.7
2023-04-15T06:51:01.764Z,94.3
2023-04-15T06:52:01.797Z,94.4
2023-04-15T06:53:01.956Z,94.3
2023-04-15T06:54:01.770Z,94.2
2023-04-15T06:55:01.845Z,93.9
2023-04-15T06:56:01.757Z,93.8
2023-04-15T06:57:01.782Z,94.0
2023-04-15T06:58:01.794Z,94.0
2023-04-15T06:59:02.674Z,93.9
2023-04-15T07:00:01.932Z,94.1
2023-04-15T07:01:02.177Z,94.1
2023-04-15T07:02:01.961Z,94.1
2023-04-15T07:03:01.959Z,94.1
2023-04-15T07:04:02.047Z,94.1
2023-04-15T07:05:01.852Z,94.2
2023-04-15T07:06:01.871Z,94.5
2023-04-15T07:07:01.966Z,94.6
2023-04-15T07:08:01.970Z,94.8
2023-04-15T07:09:02.705Z,94.8
2023-04-15T07:10:01.919Z,94.9
2023-04-15T07:11:01.955Z,94.9
2023-04-15T07:12:01.974Z,94.9
2023-04-15T07:13:01.981Z,94.7
2023-04-15T07:14:01.960Z,94.7
2023-04-15T07:15:02.113Z,94.8
2023-04-15T07:16:01.979Z,94.9
2023-04-15T07:17:02.150Z,94.9
2023-04-15T07:18:02.147Z,94.9
2023-04-15T07:19:02.546Z,95.1
2023-04-15T07:20:02.068Z,94.9
2023-04-15T07:21:02.008Z,94.9
2023-04-15T07:22:02.023Z,94.8
2023-04-15T07:23:02.140Z,94.8
2023-04-15T07:24:02.056Z,94.7
2023-04-15T07:25:02.069Z,94.8
2023-04-15T07:26:02.074Z,94.6
2023-04-15T07:27:02.077Z,94.6
2023-04-15T07:28:02.177Z,94.6
2023-04-15T07:29:02.874Z,94.6
2023-04-15T07:30:02.132Z,94.7
2023-04-15T07:31:02.246Z,94.9
2023-04-15T07:32:02.143Z,94.9
2023-04-15T07:33:02.580Z,94.9
2023-04-15T07:34:02.176Z,94.8
2023-04-15T07:35:02.169Z,94.8
2023-04-15T07:36:02.256Z,94.6
2023-04-15T07:37:02.207Z,94.4
2023-04-15T07:38:02.227Z,94.4
2023-04-15T07:39:03.503Z,94.4
2023-04-15T07:40:02.391Z,94.3
2023-04-15T07:41:02.256Z,94.0
2023-04-15T07:42:02.708Z,94.0
2023-04-15T07:43:02.317Z,94.0
2023-04-15T07:44:02.326Z,93.6
2023-04-15T07:45:02.313Z,93.1
2023-04-15T07:46:02.399Z,92.7
2023-04-15T07:47:02.376Z,92.3
2023-04-15T07:48:02.546Z,92.2
2023-04-15T07:49:03.057Z,92.3
2023-04-15T07:50:02.357Z,92.2
2023-04-15T07:51:02.373Z,91.9
2023-04-15T07:52:02.397Z,91.8
2023-04-15T07:53:02.369Z,91.9
2023-04-15T07:54:02.393Z,92.0
2023-04-15T07:55:02.416Z,92.1
2023-04-15T07:56:02.547Z,92.1
2023-04-15T07:57:02.446Z,92.0
2023-04-15T07:58:02.495Z,92.0
2023-04-15T07:59:03.479Z,92.0
2023-04-15T08:00:02.484Z,92.2
2023-04-15T08:01:02.487Z,92.4
2023-04-15T08:02:02.762Z,92.2
2023-04-15T08:03:03.360Z,92.0
2023-04-15T08:04:03.022Z,91.6
2023-04-15T08:05:02.653Z,91.1
2023-04-15T08:06:02.524Z,91.0
2023-04-15T08:07:02.535Z,90.8
2023-04-15T08:08:02.526Z,90.8
2023-04-15T08:09:03.173Z,90.2
2023-04-15T08:10:02.564Z,89.9
2023-04-15T08:11:02.583Z,89.7
2023-04-15T08:12:02.580Z,89.7
2023-04-15T08:13:02.639Z,89.7
2023-04-15T08:14:02.609Z,89.6
2023-04-15T08:15:02.623Z,88.9
2023-04-15T08:16:02.687Z,88.8
2023-04-15T08:17:02.655Z,88.7
2023-04-15T08:18:02.619Z,89.1
2023-04-15T08:19:03.353Z,89.3
2023-04-15T08:20:02.702Z,89.4
2023-04-15T08:21:02.706Z,89.4
2023-04-15T08:22:02.683Z,89.7
2023-04-15T08:23:02.763Z,89.9
2023-04-15T08:24:02.708Z,90.0
2023-04-15T08:25:02.729Z,90.0
2023-04-15T08:26:02.747Z,89.9
2023-04-15T08:27:03.374Z,89.4
2023-04-15T08:28:02.761Z,89.3
2023-04-15T08:29:03.532Z,89.1
2023-04-15T08:30:05.473Z,89.1
2023-04-15T08:31:02.794Z,89.5
2023-04-15T08:32:02.837Z,89.5
2023-04-15T08:33:02.947Z,89.9
2023-04-15T08:34:02.843Z,90.3
2023-04-15T08:35:02.939Z,90.6
2023-04-15T08:36:02.854Z,90.7
2023-04-15T08:37:02.853Z,90.9
2023-04-15T08:38:02.863Z,91.1
2023-04-15T08:39:03.749Z,91.1
2023-04-15T08:40:02.887Z,91.3
2023-04-15T08:41:02.877Z,91.5
2023-04-15T08:42:03.035Z,91.4
2023-04-15T08:43:02.919Z,91.3
2023-04-15T08:44:02.924Z,91.2
2023-04-15T08:45:02.935Z,91.3
2023-04-15T08:46:02.966Z,91.2
2023-04-15T08:47:03.579Z,90.9
2023-04-15T08:48:03.085Z,90.4
2023-04-15T08:49:03.534Z,89.9
2023-04-15T08:50:02.992Z,89.5
2023-04-15T08:51:03.006Z,89.4
2023-04-15T08:52:03.015Z,89.5
2023-04-15T08:53:03.016Z,89.6
2023-04-15T08:54:03.041Z,89.0
2023-04-15T08:55:03.045Z,88.9
2023-04-15T08:56:03.070Z,88.6
2023-04-15T08:57:03.053Z,88.3
2023-04-15T08:58:03.064Z,87.8
2023-04-15T08:59:03.793Z,87.6
2023-04-15T09:00:06.014Z,86.9
2023-04-15T09:01:03.218Z,86.3
2023-04-15T09:02:03.223Z,86.1
2023-04-15T09:03:03.453Z,86.0
2023-04-15T09:04:03.316Z,85.8
2023-04-15T09:05:03.184Z,85.6
2023-04-15T09:06:03.143Z,85.3
2023-04-15T09:07:03.190Z,85.2
2023-04-15T09:08:03.296Z,85.3
2023-04-15T09:09:03.997Z,84.5
2023-04-15T09:10:03.251Z,84.5
2023-04-15T09:11:03.225Z,85.0
2023-04-15T09:12:03.217Z,85.2
2023-04-15T09:13:03.227Z,85.5
2023-04-15T09:14:03.244Z,85.8
2023-04-15T09:15:03.252Z,85.3
2023-04-15T09:16:03.268Z,85.3
2023-04-15T09:17:03.558Z,85.3
2023-04-15T09:18:03.488Z,84.5
2023-04-15T09:19:03.817Z,84.2
2023-04-15T09:21:03.370Z,82.0
2023-04-15T09:22:03.322Z,81.5
2023-04-15T09:23:03.344Z,81.1
2023-04-15T09:24:04.117Z,80.6
2023-04-15T09:25:03.434Z,81.0
2023-04-15T09:26:03.400Z,80.9
2023-04-15T09:27:03.369Z,80.3
2023-04-15T09:28:03.464Z,81.2
2023-04-15T09:29:03.389Z,81.2
2023-04-15T09:30:03.544Z,81.2
2023-04-15T09:31:03.543Z,81.4
2023-04-15T09:32:03.485Z,80.9
2023-04-15T09:33:03.560Z,81.0
2023-04-15T09:34:04.272Z,81.0
2023-04-15T09:35:03.454Z,79.8
2023-04-15T09:36:03.480Z,79.6
2023-04-15T09:37:03.645Z,79.7
2023-04-15T09:38:03.489Z,79.5
2023-04-15T09:39:03.498Z,79.8
2023-04-15T09:40:03.505Z,80.0
2023-04-15T09:41:03.526Z,80.1
2023-04-15T09:42:03.516Z,80.0
2023-04-15T09:43:03.561Z,79.9
2023-04-15T09:44:04.006Z,79.7
2023-04-15T09:45:03.538Z,79.6
2023-04-15T09:46:03.670Z,79.8
2023-04-15T09:47:03.583Z,79.3
2023-04-15T09:48:03.732Z,79.6
2023-04-15T09:49:03.588Z,79.8
2023-04-15T09:50:03.911Z,79.9
2023-04-15T09:51:03.619Z,79.2
2023-04-15T09:52:06.949Z,78.8
2023-04-15T09:53:03.649Z,79.0
2023-04-15T09:54:03.950Z,78.9
2023-04-15T09:55:03.664Z,79.0
2023-04-15T09:56:03.676Z,78.7
2023-04-15T09:57:03.713Z,78.3
2023-04-15T09:58:03.707Z,78.2
2023-04-15T09:59:03.727Z,77.1
2023-04-15T10:00:03.715Z,77.2
2023-04-15T10:01:03.879Z,77.3
2023-04-15T10:02:03.803Z,76.8
2023-04-15T10:03:04.194Z,76.3
2023-04-15T10:04:05.067Z,75.8
2023-04-15T10:05:03.779Z,76.2
2023-04-15T10:06:03.826Z,76.9
2023-04-15T10:07:03.818Z,77.0
2023-04-15T10:08:03.831Z,76.8
2023-04-15T10:09:03.823Z,76.6
2023-04-15T10:10:03.869Z,76.9
2023-04-15T10:11:03.851Z,77.1
2023-04-15T10:12:03.846Z,77.3
2023-04-15T10:13:03.858Z,77.3
2023-04-15T10:14:04.860Z,77.4
2023-04-15T10:15:03.869Z,77.1
2023-04-15T10:16:03.995Z,76.9
2023-04-15T10:17:03.951Z,76.5
2023-04-15T10:18:04.005Z,76.0
2023-04-15T10:19:04.100Z,76.4
2023-04-15T10:20:03.955Z,76.2
2023-04-15T10:21:03.943Z,76.6
2023-04-15T10:22:03.972Z,76.3
2023-04-15T10:23:03.968Z,76.4
2023-04-15T10:24:04.548Z,76.0
2023-04-15T10:25:04.010Z,76.4
2023-04-15T10:26:04.003Z,76.4
2023-04-15T10:27:04.019Z,76.3
2023-04-15T10:28:04.027Z,77.0
2023-04-15T10:29:04.043Z,76.8
2023-04-15T10:30:04.053Z,77.4
2023-04-15T10:31:04.163Z,76.8
2023-04-15T10:32:04.083Z,77.1
2023-04-15T10:33:04.111Z,77.2
2023-04-15T10:34:04.941Z,77.4
2023-04-15T10:35:04.136Z,77.2
2023-04-15T10:36:04.119Z,76.5
2023-04-15T10:37:04.172Z,76.4
2023-04-15T10:38:04.168Z,76.2
2023-04-15T10:39:04.165Z,75.7
2023-04-15T10:40:04.203Z,75.1
2023-04-15T10:41:04.180Z,75.2
2023-04-15T10:42:04.230Z,75.7
2023-04-15T10:43:04.215Z,75.3
2023-04-15T10:44:05.570Z,75.8
2023-04-15T10:45:04.235Z,75.8
2023-04-15T10:46:04.391Z,75.2
2023-04-15T10:47:04.255Z,74.9
2023-04-15T10:48:04.443Z,74.7
2023-04-15T10:49:04.269Z,74.3
2023-04-15T10:50:04.307Z,73.5
2023-04-15T10:51:04.323Z,71.9
2023-04-15T10:52:04.326Z,70.8
2023-04-15T10:53:04.324Z,70.6
2023-04-15T10:54:04.781Z,70.2
2023-04-15T10:55:04.346Z,69.9
2023-04-15T10:56:04.367Z,69.5
2023-04-15T10:57:04.363Z,69.5
2023-04-15T10:58:04.387Z,68.5
2023-04-15T10:59:04.398Z,68.8
2023-04-15T11:00:04.407Z,68.6
2023-04-15T11:01:04.414Z,67.5
2023-04-15T11:02:04.702Z,67.5
2023-04-15T11:03:04.895Z,67.5
2023-04-15T11:04:05.459Z,67.5
2023-04-15T11:05:04.530Z,66.9
2023-04-15T11:06:04.452Z,67.1
2023-04-15T11:07:04.469Z,66.0
2023-04-15T11:08:04.603Z,65.7
2023-04-15T11:09:04.484Z,66.0
2023-04-15T11:10:04.516Z,66.3
2023-04-15T11:11:04.506Z,66.8
2023-04-15T11:12:04.513Z,66.5
2023-04-15T11:13:04.529Z,66.5
2023-04-15T11:14:04.963Z,66.4
2023-04-15T11:15:04.570Z,66.9
2023-04-15T11:16:04.694Z,66.8
2023-04-15T11:17:04.582Z,66.1
2023-04-15T11:18:04.692Z,66.5
2023-04-15T11:19:04.611Z,66.3
2023-04-15T11:20:04.639Z,66.4
2023-04-15T11:21:04.656Z,66.6
2023-04-15T11:22:04.645Z,66.7
2023-04-15T11:23:16.071Z,67.2
2023-04-15T11:24:05.753Z,67.3
2023-04-15T11:25:04.672Z,67.1
2023-04-15T11:26:04.852Z,67.1
2023-04-15T11:27:04.694Z,66.7
2023-04-15T11:28:04.706Z,67.0
2023-04-15T11:29:05.386Z,67.3
2023-04-15T11:30:04.731Z,67.3
2023-04-15T11:31:04.873Z,67.4
2023-04-15T11:32:04.754Z,67.0
2023-04-15T11:33:04.798Z,66.6
2023-04-15T11:34:04.946Z,65.9
2023-04-15T11:35:04.918Z,66.0
2023-04-15T11:36:04.813Z,65.3
2023-04-15T11:37:04.813Z,65.8
2023-04-15T11:38:04.823Z,66.0
2023-04-15T11:39:04.826Z,65.7
2023-04-15T11:40:04.852Z,65.7
2023-04-15T11:41:04.856Z,64.0
2023-04-15T11:42:04.923Z,64.0
2023-04-15T11:43:04.889Z,64.2
2023-04-15T11:44:05.435Z,64.2
2023-04-15T11:45:04.895Z,63.2
2023-04-15T11:46:05.131Z,63.2
2023-04-15T11:47:04.927Z,63.4
2023-04-15T11:48:04.954Z,63.5
2023-04-15T11:49:04.957Z,63.6
2023-04-15T11:50:05.016Z,63.7
2023-04-15T11:51:05.010Z,63.9
2023-04-15T11:52:04.993Z,63.7
2023-04-15T11:53:08.801Z,63.8
2023-04-15T11:54:06.022Z,64.0
2023-04-15T11:55:05.053Z,64.1
2023-04-15T11:56:05.038Z,65.0
2023-04-15T11:57:05.072Z,65.6
2023-04-15T11:58:05.072Z,66.0
2023-04-15T11:59:05.094Z,66.5
2023-04-15T12:00:05.086Z,67.2
2023-04-15T12:01:05.108Z,67.4
2023-04-15T12:02:05.364Z,67.8
2023-04-15T12:03:05.685Z,67.7
2023-04-15T12:04:06.593Z,67.1
2023-04-15T12:05:05.402Z,66.7
2023-04-15T12:06:05.199Z,67.1
2023-04-15T12:07:05.166Z,67.4
2023-04-15T12:08:05.174Z,67.1
2023-04-15T12:09:05.221Z,66.8
2023-04-15T12:10:05.228Z,66.7
2023-04-15T12:11:05.240Z,66.4
2023-04-15T12:12:05.242Z,66.2
2023-04-15T12:13:05.272Z,66.2
2023-04-15T12:14:06.510Z,65.9
2023-04-15T12:15:05.274Z,65.7
2023-04-15T12:16:05.428Z,64.9
2023-04-15T12:17:05.426Z,64.9
2023-04-15T12:18:06.997Z,65.1
2023-04-15T12:19:05.347Z,65.0
2023-04-15T12:20:05.349Z,64.8
2023-04-15T12:21:05.391Z,65.0
2023-04-15T12:22:05.408Z,65.2
2023-04-15T12:23:05.372Z,65.3
2023-04-15T12:24:06.225Z,65.3
2023-04-15T12:25:05.410Z,65.1
2023-04-15T12:26:05.430Z,65.2
2023-04-15T12:27:05.452Z,64.3
2023-04-15T12:28:05.486Z,63.4
2023-04-15T12:29:05.462Z,63.4
2023-04-15T12:30:05.489Z,63.2
2023-04-15T12:31:05.572Z,63.6
2023-04-15T12:32:05.554Z,63.1
2023-04-15T12:33:05.693Z,63.3
2023-04-15T12:34:06.216Z,63.5
2023-04-15T12:35:05.517Z,63.6
2023-04-15T12:36:05.566Z,63.5
2023-04-15T12:37:05.556Z,63.4
2023-04-15T12:38:05.557Z,63.0
2023-04-15T12:39:05.579Z,62.0
2023-04-15T12:40:05.577Z,62.1
2023-04-15T12:41:05.584Z,62.2
2023-04-15T12:42:05.634Z,62.2
2023-04-15T12:43:05.786Z,61.4
2023-04-15T12:44:06.488Z,61.3
2023-04-15T12:45:05.632Z,61.5
2023-04-15T12:46:05.813Z,62.2
2023-04-15T12:47:05.738Z,62.0
2023-04-15T12:48:05.684Z,61.7
2023-04-15T12:49:05.685Z,61.5
2023-04-15T12:50:05.686Z,61.7
2023-04-15T12:51:05.954Z,61.6
2023-04-15T12:52:05.765Z,60.8
2023-04-15T12:53:05.732Z,60.9
2023-04-15T12:54:06.765Z,60.9
2023-04-15T12:55:05.789Z,61.3
2023-04-15T12:56:05.769Z,61.0
2023-04-15T12:57:08.029Z,60.8
2023-04-15T12:58:05.823Z,60.7
2023-04-15T12:59:05.794Z,60.8
2023-04-15T13:00:05.811Z,61.0
2023-04-15T13:01:05.844Z,59.8
2023-04-15T13:02:06.409Z,60.4
2023-04-15T13:03:07.777Z,60.2
2023-04-15T13:04:06.847Z,60.1
2023-04-15T13:05:05.888Z,59.9
2023-04-15T13:06:05.928Z,59.8
2023-04-15T13:07:05.910Z,58.7
2023-04-15T13:08:05.912Z,58.7
2023-04-15T13:09:06.379Z,59.1
2023-04-15T13:10:05.938Z,59.5
2023-04-15T13:11:05.963Z,59.8
2023-04-15T13:12:05.972Z,59.7
2023-04-15T13:13:05.969Z,59.0
2023-04-15T13:14:06.570Z,58.7
2023-04-15T13:15:06.055Z,59.0
2023-04-15T13:16:06.142Z,59.3
2023-04-15T13:17:06.013Z,59.7
2023-04-15T13:18:06.029Z,59.7
2023-04-15T13:19:06.064Z,59.5
2023-04-15T13:20:06.064Z,59.5
2023-04-15T13:21:06.075Z,59.2
2023-04-15T13:22:06.086Z,59.4
2023-04-15T13:23:06.124Z,60.0
2023-04-15T13:24:06.713Z,60.0
2023-04-15T13:25:06.157Z,59.6
2023-04-15T13:26:06.132Z,59.7
2023-04-15T13:27:06.148Z,59.4
2023-04-15T13:28:06.186Z,59.2
2023-04-15T13:29:06.194Z,58.1
2023-04-15T13:30:06.417Z,57.8
2023-04-15T13:31:06.325Z,57.3
2023-04-15T13:32:06.211Z,57.1
2023-04-15T13:33:06.432Z,57.6
2023-04-15T13:34:07.171Z,57.2
2023-04-15T13:35:06.280Z,58.0
2023-04-15T13:36:06.294Z,58.9